createdAt,value
2022-08-20T00:02:15.154Z,25.71
2022-08-20T00:04:43.931Z,25.72
2022-08-20T00:07:12.187Z,25.70
2022-08-20T00:09:41.567Z,25.69
2022-08-20T00:12:13.541Z,25.62
2022-08-20T00:14:41.798Z,25.63
2022-08-20T00:17:10.208Z,25.64
2022-08-20T00:19:38.099Z,25.61
2022-08-20T00:22:06.498Z,25.63
2022-08-20T00:24:34.991Z,25.64
2022-08-20T00:27:03.415Z,25.67
2022-08-20T00:29:33.316Z,25.70
2022-08-20T00:32:01.679Z,25.70
2022-08-20T00:34:30.285Z,25.71
2022-08-20T00:36:58.230Z,25.69
2022-08-20T00:39:26.627Z,25.68
2022-08-20T00:41:54.576Z,25.67
2022-08-20T00:44:23.481Z,25.66
2022-08-20T00:46:54.430Z,25.65
2022-08-20T00:49:25.844Z,25.64
2022-08-20T00:51:58.918Z,25.61
2022-08-20T00:54:32.347Z,25.58
2022-08-20T00:57:04.550Z,25.57
2022-08-20T00:59:35.357Z,25.54
2022-08-20T01:02:08.366Z,25.52
2022-08-20T01:04:38.382Z,25.50
2022-08-20T01:07:08.323Z,25.50
2022-08-20T01:09:57.794Z,25.50
2022-08-20T01:12:28.310Z,25.48
2022-08-20T01:14:56.944Z,25.47
2022-08-20T01:17:29.075Z,25.43
2022-08-20T01:20:01.863Z,25.41
2022-08-20T01:22:57.731Z,25.38
2022-08-20T01:25:33.817Z,25.39
2022-08-20T01:28:03.935Z,25.37
2022-08-20T01:30:33.636Z,25.35
2022-08-20T01:33:02.524Z,25.29
2022-08-20T01:35:30.715Z,25.34
2022-08-20T01:37:59.207Z,25.35
2022-08-20T01:40:45.393Z,25.38
2022-08-20T01:43:15.804Z,25.38
2022-08-20T01:45:45.441Z,25.33
2022-08-20T01:48:18.025Z,25.33
2022-08-20T01:50:55.388Z,25.33
2022-08-20T01:53:29.709Z,25.35
2022-08-20T01:55:57.714Z,25.34
2022-08-20T01:58:29.776Z,25.34
2022-08-20T02:00:58.447Z,25.36
2022-08-20T02:03:26.644Z,25.37
2022-08-20T02:05:54.883Z,25.36
2022-08-20T02:08:23.028Z,25.35
2022-08-20T02:10:50.958Z,25.34
2022-08-20T02:13:19.156Z,25.34
2022-08-20T02:15:48.369Z,25.34
2022-08-20T02:18:16.902Z,25.33
2022-08-20T02:20:45.981Z,25.31
2022-08-20T02:23:15.576Z,25.29
2022-08-20T02:25:47.355Z,25.27
2022-08-20T02:28:20.645Z,25.26
2022-08-20T02:30:53.137Z,25.22
2022-08-20T02:33:24.669Z,25.18
2022-08-20T02:35:56.963Z,25.14
2022-08-20T02:38:25.811Z,25.14
2022-08-20T02:40:53.916Z,25.10
2022-08-20T02:43:21.879Z,25.04
2022-08-20T02:45:51.609Z,24.98
2022-08-20T02:48:22.982Z,24.94
2022-08-20T02:50:55.643Z,24.92
2022-08-20T02:53:24.483Z,24.94
2022-08-20T02:55:53.383Z,24.96
2022-08-20T02:58:22.734Z,24.96
2022-08-20T03:00:53.023Z,24.92
2022-08-20T03:03:22.693Z,24.92
2022-08-20T03:05:54.399Z,24.90
2022-08-20T03:08:22.729Z,24.89
2022-08-20T03:10:52.835Z,24.83
2022-08-20T03:13:21.769Z,24.82
2022-08-20T03:15:58.420Z,24.79
2022-08-20T03:18:29.221Z,24.80
2022-08-20T03:20:57.819Z,24.81
2022-08-20T03:23:26.120Z,24.82
2022-08-20T03:25:54.071Z,24.84
2022-08-20T03:28:22.315Z,24.85
2022-08-20T03:30:51.335Z,24.87
2022-08-20T03:33:21.430Z,24.87
2022-08-20T03:35:49.665Z,24.85
2022-08-20T03:38:20.717Z,24.84
2022-08-20T03:41:00.833Z,24.83
2022-08-20T03:43:29.519Z,24.78
2022-08-20T03:45:57.624Z,24.77
2022-08-20T03:48:27.307Z,24.70
2022-08-20T03:50:57.567Z,24.65
2022-08-20T03:53:25.711Z,24.65
2022-08-20T03:55:59.261Z,24.64
2022-08-20T03:58:35.284Z,24.64
2022-08-20T04:01:06.804Z,24.58
2022-08-20T04:03:36.562Z,24.68
2022-08-20T04:06:05.153Z,24.64
2022-08-20T04:08:33.188Z,24.65
2022-08-20T04:11:01.908Z,24.69
2022-08-20T04:13:31.359Z,24.65
2022-08-20T04:16:03.529Z,24.64
2022-08-20T04:18:32.516Z,24.64
2022-08-20T04:21:01.806Z,24.69
2022-08-20T04:23:30.076Z,24.68
2022-08-20T04:25:58.464Z,24.72
2022-08-20T04:28:28.310Z,24.79
2022-08-20T04:30:58.393Z,24.83
2022-08-20T04:33:35.112Z,24.80
2022-08-20T04:36:06.872Z,24.97
2022-08-20T04:38:49.817Z,25.05
2022-08-20T04:41:22.919Z,24.99
2022-08-20T04:43:52.975Z,24.99
2022-08-20T04:46:22.461Z,24.99
2022-08-20T04:48:50.727Z,24.98
2022-08-20T04:51:23.056Z,25.02
2022-08-20T04:53:53.806Z,25.03
2022-08-20T04:56:24.145Z,25.02
2022-08-20T04:58:53.773Z,25.02
2022-08-20T05:01:23.818Z,25.03
2022-08-20T05:03:54.736Z,25.00
2022-08-20T05:06:28.507Z,25.04
2022-08-20T05:08:59.139Z,25.04
2022-08-20T05:11:34.324Z,25.02
2022-08-20T05:14:07.840Z,25.02
2022-08-20T05:16:40.306Z,25.04
2022-08-20T05:19:10.298Z,25.05
2022-08-20T05:21:39.644Z,25.09
2022-08-20T05:24:08.007Z,25.09
2022-08-20T05:26:36.482Z,25.12
2022-08-20T05:29:06.735Z,25.18
2022-08-20T05:31:35.610Z,25.26
2022-08-20T05:34:09.703Z,25.27
2022-08-20T05:36:40.640Z,25.32
2022-08-20T05:39:10.103Z,25.37
2022-08-20T05:41:38.714Z,25.37
2022-08-20T05:44:09.947Z,25.43
2022-08-20T05:46:40.410Z,25.49
2022-08-20T05:49:08.867Z,25.52
2022-08-20T05:51:37.768Z,25.60
2022-08-20T05:54:08.088Z,25.63
2022-08-20T05:56:37.666Z,25.71
2022-08-20T05:59:07.919Z,25.61
2022-08-20T06:01:38.661Z,25.67
2022-08-20T06:04:25.292Z,25.65
2022-08-20T06:06:55.074Z,25.70
2022-08-20T06:09:31.185Z,25.66
2022-08-20T06:12:02.301Z,25.68
2022-08-20T06:14:30.895Z,25.69
2022-08-20T06:17:04.882Z,25.68
2022-08-20T06:19:34.606Z,25.71
2022-08-20T06:22:17.892Z,25.73
2022-08-20T06:24:55.072Z,25.75
2022-08-20T06:27:23.381Z,25.75
2022-08-20T06:29:53.313Z,25.74
2022-08-20T06:32:32.362Z,25.77
2022-08-20T06:35:02.358Z,25.75
2022-08-20T06:37:32.796Z,25.74
2022-08-20T06:40:04.530Z,25.77
2022-08-20T06:42:32.624Z,25.78
2022-08-20T06:45:03.184Z,25.78
2022-08-20T06:47:31.581Z,25.77
2022-08-20T06:49:59.434Z,25.75
2022-08-20T06:52:37.766Z,25.70
2022-08-20T06:55:17.996Z,25.65
2022-08-20T06:57:47.804Z,25.60
2022-08-20T07:00:18.706Z,25.62
2022-08-20T07:02:48.102Z,25.67
2022-08-20T07:05:16.659Z,25.71
2022-08-20T07:07:45.867Z,25.71
2022-08-20T07:10:17.832Z,25.74
2022-08-20T07:12:46.876Z,25.76
2022-08-20T07:15:15.691Z,25.75
2022-08-20T07:17:43.778Z,25.78
2022-08-20T07:20:15.337Z,25.80
2022-08-20T07:22:44.220Z,25.83
2022-08-20T07:25:15.421Z,25.83
2022-08-20T07:27:46.383Z,25.82
2022-08-20T07:30:56.703Z,25.84
2022-08-20T07:33:23.097Z,25.82
2022-08-20T07:35:51.373Z,25.71
2022-08-20T07:38:24.080Z,25.75
2022-08-20T07:40:53.774Z,25.79
2022-08-20T07:43:24.111Z,25.81
2022-08-20T07:45:55.571Z,25.84
2022-08-20T07:48:28.013Z,25.85
2022-08-20T07:51:01.926Z,25.88
2022-08-20T07:53:34.841Z,25.92
2022-08-20T07:56:05.904Z,25.93
2022-08-20T07:58:36.832Z,25.92
2022-08-20T08:01:05.617Z,25.93
2022-08-20T08:03:39.462Z,25.88
2022-08-20T08:06:28.746Z,25.93
2022-08-20T08:09:00.344Z,25.97
2022-08-20T08:11:28.301Z,26.04
2022-08-20T08:13:57.549Z,26.10
2022-08-20T08:18:56.732Z,26.19
2022-08-20T08:21:26.281Z,26.24
2022-08-20T08:23:55.033Z,26.32
2022-08-20T08:26:23.040Z,26.38
2022-08-20T08:28:51.978Z,26.44
2022-08-20T08:31:21.417Z,26.53
2022-08-20T08:33:49.319Z,26.62
2022-08-20T08:36:17.640Z,26.71
2022-08-20T08:38:46.576Z,26.77
2022-08-20T08:41:20.669Z,26.84
2022-08-20T08:43:53.256Z,26.92
2022-08-20T08:46:26.989Z,26.98
2022-08-20T08:48:58.765Z,27.04
2022-08-20T08:51:33.761Z,27.06
2022-08-20T08:54:06.658Z,27.09
2022-08-20T08:56:36.167Z,27.09
2022-08-20T08:59:08.563Z,27.06
2022-08-20T09:01:54.054Z,27.07
2022-08-20T09:04:28.451Z,27.15
2022-08-20T09:06:56.400Z,27.21
2022-08-20T09:09:28.676Z,27.26
2022-08-20T09:12:06.479Z,27.30
2022-08-20T09:14:34.997Z,27.35
2022-08-20T09:17:08.156Z,27.33
2022-08-20T09:19:36.506Z,27.32
2022-08-20T09:22:08.642Z,27.35
2022-08-20T09:24:37.093Z,27.38
2022-08-20T09:27:05.506Z,27.42
2022-08-20T09:29:35.538Z,27.46
2022-08-20T09:32:10.757Z,27.52
2022-08-20T09:34:39.428Z,27.60
2022-08-20T09:37:07.771Z,27.62
2022-08-20T09:39:36.054Z,27.75
2022-08-20T09:42:09.003Z,27.84
2022-08-20T09:44:37.167Z,27.74
2022-08-20T09:47:05.273Z,27.67
2022-08-20T09:49:34.662Z,27.67
2022-08-20T09:52:04.014Z,27.74
2022-08-20T09:54:33.766Z,27.81
2022-08-20T09:57:06.155Z,27.87
2022-08-20T09:59:35.951Z,27.96
2022-08-20T10:02:05.000Z,28.00
2022-08-20T10:04:34.635Z,27.97
2022-08-20T10:07:02.551Z,28.00
2022-08-20T10:09:30.415Z,28.04
2022-08-20T10:11:58.512Z,28.18
2022-08-20T10:14:26.572Z,28.27
2022-08-20T10:16:59.822Z,28.34
2022-08-20T10:19:30.090Z,28.40
2022-08-20T10:22:00.024Z,28.50
2022-08-20T10:24:28.603Z,28.57
2022-08-20T10:26:58.615Z,28.62
2022-08-20T10:29:27.611Z,28.63
2022-08-20T10:31:57.845Z,28.56
2022-08-20T10:34:26.708Z,28.54
2022-08-20T10:36:54.648Z,28.57
2022-08-20T10:39:24.150Z,28.65
2022-08-20T10:41:52.107Z,28.70
2022-08-20T10:44:19.996Z,28.81
2022-08-20T10:46:48.217Z,28.83
2022-08-20T10:49:16.120Z,28.85
2022-08-20T10:51:44.104Z,28.89
2022-08-20T10:54:12.418Z,28.94
2022-08-20T10:56:42.703Z,28.84
2022-08-20T10:59:10.713Z,28.92
2022-08-20T11:01:38.882Z,28.98
2022-08-20T11:04:06.826Z,29.13
2022-08-20T11:06:34.698Z,29.16
2022-08-20T11:09:02.827Z,29.18
2022-08-20T11:11:30.776Z,29.30
2022-08-20T11:14:00.285Z,29.37
2022-08-20T11:16:28.462Z,29.28
2022-08-20T11:18:56.328Z,29.35
2022-08-20T11:21:24.259Z,29.46
2022-08-20T11:23:52.439Z,29.58
2022-08-20T11:26:24.134Z,29.64
2022-08-20T11:28:52.549Z,29.79
2022-08-20T11:31:21.767Z,29.92
2022-08-20T11:33:49.678Z,30.08
2022-08-20T11:36:17.874Z,30.14
2022-08-20T11:38:45.713Z,30.18
2022-08-20T11:41:13.822Z,30.23
2022-08-20T11:43:51.151Z,30.15
2022-08-20T11:46:28.994Z,30.38
2022-08-20T11:48:57.077Z,30.37
2022-08-20T11:51:25.012Z,30.33
2022-08-20T11:53:52.927Z,30.41
2022-08-20T11:56:21.511Z,30.49
2022-08-20T11:58:49.487Z,30.51
2022-08-20T12:01:17.472Z,30.68
2022-08-20T12:03:47.008Z,30.71
2022-08-20T12:06:15.069Z,30.77
2022-08-20T12:08:43.082Z,30.83
2022-08-20T12:11:11.370Z,30.86
2022-08-20T12:13:47.989Z,30.88
2022-08-20T12:16:17.543Z,30.90
2022-08-20T12:18:47.718Z,30.85
2022-08-20T12:21:15.911Z,30.89
2022-08-20T12:23:44.323Z,30.90
2022-08-20T12:26:12.380Z,30.85
2022-08-20T12:28:40.597Z,30.89
2022-08-20T12:31:08.829Z,30.89
2022-08-20T12:33:36.703Z,30.95
2022-08-20T12:36:06.506Z,31.06
2022-08-20T12:38:36.297Z,31.07
2022-08-20T12:41:04.622Z,30.93
2022-08-20T12:43:32.479Z,30.63
2022-08-20T12:46:00.576Z,30.79
2022-08-20T12:48:28.485Z,30.90
2022-08-20T12:50:56.818Z,30.97
2022-08-20T12:53:26.244Z,31.15
2022-08-20T12:55:54.099Z,31.07
2022-08-20T12:58:21.989Z,31.06
2022-08-20T13:00:50.532Z,31.07
2022-08-20T13:03:20.366Z,31.04
2022-08-20T13:05:49.569Z,30.95
2022-08-20T13:08:20.859Z,30.95
2022-08-20T13:10:50.224Z,30.95
2022-08-20T13:13:20.515Z,31.01
2022-08-20T13:15:49.785Z,31.07
2022-08-20T13:18:17.836Z,31.11
2022-08-20T13:20:46.317Z,30.96
2022-08-20T13:23:14.256Z,30.85
2022-08-20T13:25:42.366Z,30.74
2022-08-20T13:28:11.896Z,30.70
2022-08-20T13:30:41.287Z,30.71
2022-08-20T13:33:09.235Z,30.58
2022-08-20T13:35:37.542Z,30.54
2022-08-20T13:38:05.421Z,30.52
2022-08-20T13:40:33.502Z,30.50
2022-08-20T13:43:06.506Z,30.41
2022-08-20T13:45:36.732Z,30.45
2022-08-20T13:48:06.961Z,30.52
2022-08-20T13:50:39.923Z,30.57
2022-08-20T13:53:08.116Z,30.65
2022-08-20T13:55:38.603Z,30.69
2022-08-20T13:58:08.576Z,30.86
2022-08-20T14:00:38.159Z,31.05
2022-08-20T14:03:08.107Z,31.17
2022-08-20T14:05:36.977Z,31.27
2022-08-20T14:08:09.756Z,31.40
2022-08-20T14:10:38.904Z,31.48
2022-08-20T14:13:08.897Z,31.55
2022-08-20T14:15:39.947Z,31.58
2022-08-20T14:18:07.843Z,31.58
2022-08-20T14:20:35.914Z,31.55
2022-08-20T14:23:07.349Z,31.49
2022-08-20T14:25:35.730Z,31.37
2022-08-20T14:28:11.058Z,31.23
2022-08-20T14:30:40.931Z,31.10
2022-08-20T14:33:08.867Z,30.99
2022-08-20T14:35:37.176Z,30.86
2022-08-20T14:38:06.127Z,30.70
2022-08-20T14:40:35.133Z,30.55
2022-08-20T14:43:03.285Z,30.44
2022-08-20T14:45:31.513Z,30.24
2022-08-20T14:48:00.714Z,29.54
2022-08-20T14:50:30.910Z,29.22
2022-08-20T14:52:59.579Z,27.94
2022-08-20T14:55:30.459Z,26.16
2022-08-20T14:57:58.762Z,25.43
2022-08-20T15:00:28.816Z,25.03
2022-08-20T15:02:57.354Z,25.04
2022-08-20T15:05:27.389Z,25.14
2022-08-20T15:07:58.507Z,25.27
2022-08-20T15:10:29.894Z,25.30
2022-08-20T15:12:58.438Z,25.36
2022-08-20T15:15:26.554Z,25.39
2022-08-20T15:17:57.611Z,25.43
2022-08-20T15:20:32.336Z,25.50
2022-08-20T15:23:01.118Z,25.56
2022-08-20T15:25:36.840Z,25.56
2022-08-20T15:28:08.471Z,25.56
2022-08-20T15:30:37.538Z,25.56
2022-08-20T15:33:06.008Z,25.61
2022-08-20T15:35:35.511Z,25.61
2022-08-20T15:38:03.583Z,25.57
2022-08-20T15:40:33.437Z,25.51
2022-08-20T15:43:03.406Z,25.51
2022-08-20T15:45:33.053Z,25.55
2022-08-20T15:48:08.885Z,25.55
2022-08-20T15:51:10.963Z,25.57
2022-08-20T15:53:48.873Z,25.65
2022-08-20T15:56:32.985Z,25.62
2022-08-20T15:59:14.710Z,25.61
2022-08-20T16:01:54.007Z,25.58
2022-08-20T16:04:35.897Z,25.57
2022-08-20T16:07:10.949Z,25.61
2022-08-20T16:09:51.034Z,25.65
2022-08-20T16:12:24.850Z,25.66
2022-08-20T16:14:58.042Z,25.65
2022-08-20T16:17:31.689Z,25.65
2022-08-20T16:20:05.999Z,25.69
2022-08-20T16:22:38.198Z,25.71
2022-08-20T16:25:07.338Z,25.70
2022-08-20T16:27:42.823Z,25.65
2022-08-20T16:30:18.901Z,25.66
2022-08-20T16:32:52.954Z,25.73
2022-08-20T16:35:30.592Z,25.71
2022-08-20T16:38:07.911Z,25.73
2022-08-20T16:40:44.435Z,25.71
2022-08-20T16:43:20.703Z,25.70
2022-08-20T16:45:53.599Z,25.69
2022-08-20T16:48:21.602Z,25.65
2022-08-20T16:50:57.944Z,25.62
2022-08-20T16:53:27.821Z,25.61
2022-08-20T16:55:57.073Z,25.53
2022-08-20T16:58:25.134Z,25.48
2022-08-20T17:01:07.338Z,25.44
2022-08-20T17:03:40.368Z,25.48
2022-08-20T17:06:19.992Z,25.44
2022-08-20T17:08:51.093Z,25.47
2022-08-20T17:11:25.935Z,25.45
2022-08-20T17:14:08.039Z,25.44
2022-08-20T17:16:38.357Z,25.46
2022-08-20T17:19:13.701Z,25.44
2022-08-20T17:21:41.979Z,25.47
2022-08-20T17:24:20.999Z,25.45
2022-08-20T17:26:51.384Z,25.46
2022-08-20T17:29:24.942Z,25.46
2022-08-20T17:31:55.507Z,25.43
2022-08-20T17:34:26.013Z,25.43
2022-08-20T17:36:57.066Z,25.41
2022-08-20T17:39:28.579Z,25.36
2022-08-20T17:42:06.120Z,25.32
2022-08-20T17:44:38.384Z,25.32
2022-08-20T17:47:12.767Z,25.31
2022-08-20T17:50:01.254Z,25.30
2022-08-20T17:52:45.020Z,25.31
2022-08-20T17:55:14.628Z,25.29
2022-08-20T17:57:46.162Z,25.29
2022-08-20T18:00:17.912Z,25.23
2022-08-20T18:02:46.092Z,25.03
2022-08-20T18:05:19.467Z,25.04
2022-08-20T18:07:59.648Z,25.04
2022-08-20T18:10:30.900Z,24.99
2022-08-20T18:13:06.428Z,25.01
2022-08-20T18:15:39.419Z,24.98
2022-08-20T18:18:18.965Z,24.92
2022-08-20T18:21:18.240Z,24.98
2022-08-20T18:24:02.608Z,25.01
2022-08-20T18:27:56.126Z,24.98
2022-08-20T18:30:24.615Z,25.03
2022-08-20T18:33:04.148Z,24.94
2022-08-20T18:35:45.962Z,24.98
2022-08-20T18:42:03.473Z,24.87
2022-08-20T18:44:58.663Z,24.80
2022-08-20T18:47:43.378Z,24.77
2022-08-20T18:50:26.829Z,24.73
2022-08-20T18:53:16.840Z,24.72
2022-08-20T18:56:02.187Z,24.74
2022-08-20T18:58:32.504Z,24.71
2022-08-20T19:01:07.650Z,24.68
2022-08-20T19:03:42.865Z,24.66
2022-08-20T19:06:26.414Z,24.64
2022-08-20T19:09:09.936Z,24.65
2022-08-20T19:12:17.943Z,24.65
2022-08-20T19:15:01.188Z,24.69
2022-08-20T19:17:55.012Z,24.65
2022-08-20T19:20:29.576Z,24.67
2022-08-20T19:23:02.546Z,24.62
2022-08-20T19:25:32.639Z,24.62
2022-08-20T19:28:03.980Z,24.63
2022-08-20T19:30:42.414Z,24.65
2022-08-20T19:33:11.947Z,24.66
2022-08-20T19:35:40.933Z,24.63
2022-08-20T19:38:17.684Z,24.62
2022-08-20T19:40:46.732Z,24.61
2022-08-20T19:43:21.943Z,24.61
2022-08-20T19:45:56.101Z,24.58
2022-08-20T19:48:36.311Z,24.57
2022-08-20T19:51:15.976Z,24.59
2022-08-20T19:53:46.986Z,24.59
2022-08-20T19:56:17.889Z,24.60
2022-08-20T19:58:46.326Z,24.62
2022-08-20T20:01:19.544Z,24.63
2022-08-20T20:03:59.048Z,24.64
2022-08-20T20:06:28.934Z,24.68
2022-08-20T20:09:03.424Z,24.63
2022-08-20T20:11:35.917Z,24.62
2022-08-20T20:14:07.835Z,24.60
2022-08-20T20:16:40.779Z,24.58
2022-08-20T20:19:26.323Z,24.58
2022-08-20T20:22:19.752Z,24.59
2022-08-20T20:24:50.902Z,24.59
2022-08-20T20:27:23.682Z,24.56
2022-08-20T20:29:59.563Z,24.50
2022-08-20T20:32:28.526Z,24.48
2022-08-20T20:35:00.375Z,24.46
2022-08-20T20:37:48.987Z,24.48
2022-08-20T20:40:26.037Z,24.49
2022-08-20T20:42:59.540Z,24.50
2022-08-20T20:45:32.913Z,24.50
2022-08-20T20:48:02.614Z,24.46
2022-08-20T20:50:34.790Z,24.47
2022-08-20T20:53:02.884Z,24.45
2022-08-20T20:55:34.126Z,24.45
2022-08-20T20:58:03.232Z,24.45
2022-08-20T21:00:34.164Z,24.42
2022-08-20T21:03:03.827Z,24.35
2022-08-20T21:05:34.174Z,24.30
2022-08-20T21:08:05.048Z,24.26
2022-08-20T21:10:36.983Z,24.27
2022-08-20T21:13:05.084Z,24.25
2022-08-20T21:15:33.994Z,24.25
2022-08-20T21:18:04.440Z,24.21
2022-08-20T21:20:34.351Z,24.22
2022-08-20T21:23:02.622Z,24.23
2022-08-20T21:25:33.572Z,24.24
2022-08-20T21:28:02.070Z,24.24
2022-08-20T21:30:30.702Z,24.23
2022-08-20T21:32:58.806Z,24.23
2022-08-20T21:35:27.643Z,24.23
2022-08-20T21:37:57.142Z,24.23
2022-08-20T21:40:28.429Z,24.20
2022-08-20T21:42:57.276Z,24.18
2022-08-20T21:45:28.307Z,24.15
2022-08-20T21:47:57.227Z,24.14
2022-08-20T21:50:26.912Z,24.11
2022-08-20T21:52:59.479Z,24.11
2022-08-20T21:55:35.106Z,24.08
2022-08-20T21:58:06.974Z,24.09
2022-08-20T22:00:55.498Z,24.08
2022-08-20T22:03:26.907Z,24.15
2022-08-20T22:05:56.034Z,24.13
2022-08-20T22:08:26.147Z,24.14
2022-08-20T22:10:59.447Z,24.14
2022-08-20T22:13:31.408Z,24.15
2022-08-20T22:16:00.064Z,24.16
2022-08-20T22:18:28.462Z,24.18
2022-08-20T22:20:56.758Z,24.19
2022-08-20T22:23:25.037Z,24.19
2022-08-20T22:25:53.523Z,24.20
2022-08-20T22:28:23.155Z,24.21
2022-08-20T22:30:51.019Z,24.21
2022-08-20T22:33:23.488Z,24.20
2022-08-20T22:35:53.801Z,24.12
2022-08-20T22:38:22.615Z,24.05
2022-08-20T22:40:51.175Z,24.06
2022-08-20T22:43:19.156Z,24.05
2022-08-20T22:45:51.846Z,24.05
2022-08-20T22:48:20.974Z,24.01
2022-08-20T22:50:50.259Z,23.96
2022-08-20T22:53:20.076Z,23.88
2022-08-20T22:55:48.375Z,23.87
2022-08-20T22:58:17.082Z,23.85
2022-08-20T23:00:46.829Z,23.82
2022-08-20T23:03:18.476Z,23.82
2022-08-20T23:06:07.979Z,23.82
2022-08-20T23:08:36.654Z,23.82
2022-08-20T23:11:04.742Z,23.81
2022-08-20T23:13:32.936Z,23.78
2022-08-20T23:16:01.032Z,23.79
2022-08-20T23:18:30.340Z,23.78
2022-08-20T23:20:59.219Z,23.77
2022-08-20T23:23:28.225Z,23.74
2022-08-20T23:25:56.479Z,23.72
2022-08-20T23:28:26.055Z,23.68
2022-08-20T23:30:54.271Z,23.65
2022-08-20T23:33:23.198Z,23.64
2022-08-20T23:35:52.795Z,23.62
2022-08-20T23:38:21.263Z,23.62
2022-08-20T23:40:49.174Z,23.61
2022-08-20T23:43:18.660Z,23.57
2022-08-20T23:45:46.624Z,23.58
2022-08-20T23:48:14.492Z,23.60
2022-08-20T23:50:44.687Z,23.60
2022-08-20T23:53:13.912Z,23.58
2022-08-20T23:55:41.863Z,23.55
2022-08-20T23:58:10.042Z,23.56
